ESGJ/JKG METAR and TAF weather

Enter ICAO airport designator
Station Type Date Time Source
ESGJ METAR 2021/09/25 03:20 UTC NOAA

ESGJ 250320Z AUTO 27010KT 9999 SCT029/// 12/10 Q1001


Station Type Date Time Source
ESGJ Decoded METAR 2021/09/25 03:20 UTC NOAA

Jonkoping Flygplats, Sweden (ESGJ) 57-46N 014-05E 232M
Sep 24, 2021 - 11:20 PM EDT / 2021.09.25 0320 UTC
Wind: from the W (270 degrees) at 12 MPH (10 KT):0
Visibility: greater than 7 mile(s):0
Sky conditions: partly cloudy
Temperature: 53 F (12 C)
Dew Point: 50 F (10 C)
Relative Humidity: 87%
Pressure (altimeter): 29.56 in. Hg (1001 hPa)
ob: ESGJ 250320Z AUTO 27010KT 9999 SCT029/// 12/10 Q1001
cycle: 3

Station Type Date Time Source
ESGJ TAF 2015/05/01 23:06 UTC NOAA

TAF TAF ESGJ 302359Z 3023/0101 CNL

Example: see airport list